Time;durP1;ratioP1;P1;durP2;ratioP2;P2;SDS_P1;SDS_P2;PMS_P1;PMS_P2;Temp;Humidity;BMP_temperature;BMP_pressure;BME280_temperature;BME280_humidity;BME280_pressure;Samples;Min_cycle;Max_cycle;Signal;HPM_P1;HPM_P2
2023/10/29 00:02:03;;;;;;;1999.90;999.90;;;;;;;13.40;66.73;96214.81;5137076;27;20047;-63
2023/10/29 00:04:35;;;;;;;1999.90;999.90;;;;;;;13.40;66.97;96217.44;5137017;27;20077;-62
2023/10/29 00:07:03;;;;;;;1999.90;999.90;;;;;;;13.36;66.97;96216.75;5136977;27;20051;-62
2023/10/29 00:09:31;;;;;;;1999.90;999.90;;;;;;;13.34;66.94;96215.16;5136856;27;20039;-63
2023/10/29 00:11:59;;;;;;;1999.90;999.90;;;;;;;13.24;67.51;96220.03;5136726;27;20059;-63
2023/10/29 00:14:27;;;;;;;1999.90;999.90;;;;;;;13.26;67.57;96218.19;5136819;27;20130;-61
2023/10/29 00:16:56;;;;;;;1999.90;999.90;;;;;;;13.26;67.46;96232.19;5136686;27;20047;-62
2023/10/29 00:19:25;;;;;;;1999.90;999.90;;;;;;;13.14;67.28;96232.81;5136738;27;20050;-63
2023/10/29 00:21:54;;;;;;;1999.90;999.90;;;;;;;13.00;67.66;96234.41;5136508;27;20113;-63
2023/10/29 00:24:22;;;;;;;1999.90;999.90;;;;;;;12.80;68.63;96230.22;5136434;27;20053;-62
2023/10/29 00:26:51;;;;;;;1999.90;999.90;;;;;;;12.72;68.80;96227.97;5136365;27;20058;-62
2023/10/29 00:29:20;;;;;;;1999.90;999.90;;;;;;;12.65;69.16;96223.97;5136551;27;20075;-63
2023/10/29 00:31:48;;;;;;;1999.90;999.90;;;;;;;12.59;69.98;96224.28;5136384;27;20074;-62
2023/10/29 00:34:16;;;;;;;1999.90;999.90;;;;;;;12.52;70.14;96228.97;5136320;27;20040;-63
2023/10/29 00:36:47;;;;;;;1999.90;999.90;;;;;;;12.46;70.14;96235.41;5136245;27;20039;-63
2023/10/29 00:39:15;;;;;;;1999.90;999.90;;;;;;;12.40;70.35;96238.31;5152545;27;20058;-62
2023/10/29 00:41:45;;;;;;;1999.90;999.90;;;;;;;12.37;70.34;96235.84;5156900;27;20134;-62
2023/10/29 00:44:13;;;;;;;1999.90;999.90;;;;;;;12.33;70.38;96240.41;5156838;27;20042;-62
2023/10/29 00:46:42;;;;;;;1999.90;999.90;;;;;;;12.31;70.92;96246.69;5156343;27;20086;-61
2023/10/29 00:49:10;;;;;;;1999.90;999.90;;;;;;;12.32;70.93;96241.34;5156824;27;20381;-62
2023/10/29 00:51:38;;;;;;;1999.90;999.90;;;;;;;12.25;70.96;96245.19;5156827;27;20081;-62
2023/10/29 00:54:09;;;;;;;1999.90;999.90;;;;;;;12.24;71.03;96246.97;5156672;27;20408;-63
2023/10/29 00:56:38;;;;;;;1999.90;999.90;;;;;;;12.26;70.78;96244.28;5156586;27;20055;-62
2023/10/29 00:59:07;;;;;;;1999.90;999.90;;;;;;;12.25;70.84;96248.66;5156637;27;20089;-62
2023/10/29 01:01:35;;;;;;;1999.90;999.90;;;;;;;12.21;70.59;96251.50;5156516;27;20082;-61
2023/10/29 01:04:04;;;;;;;1999.90;999.90;;;;;;;12.18;70.86;96255.13;5156426;27;20099;-63
2023/10/29 01:06:33;;;;;;;1999.90;999.90;;;;;;;12.07;71.06;96245.16;5156260;27;20498;-62
2023/10/29 01:09:00;;;;;;;1999.90;999.90;;;;;;;12.06;71.25;96250.44;5156445;27;20078;-62
2023/10/29 01:11:30;;;;;;;1999.90;999.90;;;;;;;12.12;71.47;96256.28;5156410;27;20046;-63
2023/10/29 01:13:57;;;;;;;1999.90;999.90;;;;;;;12.15;71.41;96259.66;5156390;27;20051;-62
2023/10/29 01:16:27;;;;;;;1999.90;999.90;;;;;;;12.10;71.30;96254.69;5156258;27;20049;-62
2023/10/29 01:18:57;;;;;;;1999.90;999.90;;;;;;;12.10;71.19;96252.88;5156139;27;20050;-62
2023/10/29 01:21:27;;;;;;;1999.90;999.90;;;;;;;12.09;71.02;96258.19;5156144;27;20078;-63
2023/10/29 01:23:56;;;;;;;1999.90;999.90;;;;;;;11.99;71.27;96260.41;5156147;27;20087;-62
2023/10/29 01:26:24;;;;;;;1999.90;999.90;;;;;;;11.88;71.97;96267.00;5155968;27;20496;-62
2023/10/29 01:28:54;;;;;;;1999.90;999.90;;;;;;;11.87;71.67;96265.28;5156091;27;20177;-62
2023/10/29 01:31:22;;;;;;;1999.90;999.90;;;;;;;11.93;71.67;96273.78;5155959;27;20042;-63
2023/10/29 01:33:49;;;;;;;1999.90;999.90;;;;;;;11.94;71.48;96275.47;5155915;27;20046;-62
2023/10/29 01:36:18;;;;;;;1999.90;999.90;;;;;;;11.94;71.62;96278.09;5155855;27;20046;-63
2023/10/29 01:38:48;;;;;;;1999.90;999.90;;;;;;;11.94;71.58;96278.97;5155663;27;20141;-63
2023/10/29 01:41:16;;;;;;;1999.90;999.90;;;;;;;11.93;71.55;96286.91;5155741;27;20540;-62
2023/10/29 01:43:44;;;;;;;1999.90;999.90;;;;;;;11.87;71.46;96282.81;5155794;27;20070;-62
2023/10/29 01:46:14;;;;;;;1999.90;999.90;;;;;;;11.86;71.48;96286.34;5155710;27;20046;-62
2023/10/29 01:48:41;;;;;;;1999.90;999.90;;;;;;;11.78;71.53;96291.94;5155501;27;20060;-62
2023/10/29 01:51:09;;;;;;;1999.90;999.90;;;;;;;11.72;72.25;96290.47;5155587;27;20522;-62
2023/10/29 01:53:37;;;;;;;1999.90;999.90;;;;;;;11.72;72.00;96285.22;5155478;27;20162;-63
2023/10/29 01:56:08;;;;;;;1999.90;999.90;;;;;;;11.72;72.32;96287.00;5155357;27;20130;-62
2023/10/29 01:58:37;;;;;;;1999.90;999.90;;;;;;;11.67;72.61;96284.56;5154561;27;20049;-62
2023/10/29 02:01:13;;;;;;;1999.90;999.90;;;;;;;11.68;72.53;96290.69;5155320;27;20050;-62
2023/10/29 02:03:43;;;;;;;1999.90;999.90;;;;;;;11.65;72.48;96291.66;5155169;27;20125;-62
2023/10/29 02:06:18;;;;;;;1999.90;999.90;;;;;;;11.68;72.32;96298.53;5155196;27;20403;-63
2023/10/29 02:08:47;;;;;;;1999.90;999.90;;;;;;;11.63;72.51;96304.81;5155199;27;20427;-63
2023/10/29 02:11:15;;;;;;;1999.90;999.90;;;;;;;11.55;72.74;96299.09;5155146;27;20078;-63
2023/10/29 02:13:44;;;;;;;1999.90;999.90;;;;;;;11.43;72.98;96304.88;5155160;27;20046;-63
2023/10/29 02:16:14;;;;;;;1999.90;999.90;;;;;;;11.40;73.23;96300.63;5155004;27;20051;-63
2023/10/29 02:18:49;;;;;;;1999.90;999.90;;;;;;;11.42;73.39;96306.66;5155078;27;20133;-62
2023/10/29 02:21:19;;;;;;;1999.90;999.90;;;;;;;11.39;73.25;96309.44;5154947;27;20069;-62
2023/10/29 02:23:50;;;;;;;1999.90;999.90;;;;;;;11.38;73.19;96305.94;5155013;27;20043;-62
2023/10/29 02:26:23;;;;;;;1999.90;999.90;;;;;;;11.42;72.70;96308.44;5154986;27;20082;-62
2023/10/29 02:28:55;;;;;;;1999.90;999.90;;;;;;;11.37;72.82;96313.88;5154953;27;20051;-63
2023/10/29 02:31:25;;;;;;;1999.90;999.90;;;;;;;11.35;72.93;96315.72;5154898;27;20461;-62
2023/10/29 02:33:55;;;;;;;1999.90;999.90;;;;;;;11.30;73.37;96317.69;5154885;27;20047;-62
2023/10/29 02:36:24;;;;;;;1999.90;999.90;;;;;;;11.30;72.95;96320.31;5154816;27;20055;-62
2023/10/29 02:38:56;;;;;;;1999.90;999.90;;;;;;;11.27;72.97;96323.91;5154507;27;20412;-62
2023/10/29 02:41:26;;;;;;;1999.90;999.90;;;;;;;11.23;73.65;96328.44;5154663;27;20046;-63
2023/10/29 02:43:58;;;;;;;1999.90;999.90;;;;;;;11.23;73.50;96330.22;5154832;27;20043;-63
2023/10/29 02:46:28;;;;;;;1999.90;999.90;;;;;;;11.13;74.27;96327.13;5154614;27;20050;-62
2023/10/29 02:48:57;;;;;;;1999.90;999.90;;;;;;;11.08;74.80;96327.31;5154573;27;20046;-62
2023/10/29 02:51:26;;;;;;;1999.90;999.90;;;;;;;11.05;75.07;96326.63;5154874;27;20068;-62
2023/10/29 02:53:56;;;;;;;1999.90;999.90;;;;;;;11.08;74.83;96329.94;5154717;27;20099;-62
2023/10/29 02:56:23;;;;;;;1999.90;999.90;;;;;;;11.11;74.52;96336.84;5154825;27;20054;-62
2023/10/29 02:58:53;;;;;;;1999.90;999.90;;;;;;;11.11;73.94;96334.22;5154617;27;20114;-62
2023/10/29 03:01:22;;;;;;;1999.90;999.90;;;;;;;10.96;74.52;96330.50;5154836;27;20038;-61
2023/10/29 03:03:53;;;;;;;1999.90;999.90;;;;;;;10.99;75.20;96328.59;5154551;27;20462;-62
2023/10/29 03:06:21;;;;;;;1999.90;999.90;;;;;;;11.03;75.41;96339.78;5154533;27;20555;-62
2023/10/29 03:08:49;;;;;;;1999.90;999.90;;;;;;;11.01;75.24;96341.59;5155755;27;20054;-62
2023/10/29 03:11:18;;;;;;;1999.90;999.90;;;;;;;11.03;74.87;96342.41;5158786;27;20042;-62
2023/10/29 03:13:47;;;;;;;1999.90;999.90;;;;;;;11.00;74.62;96337.28;5158848;27;20038;-62
2023/10/29 03:16:16;;;;;;;1999.90;999.90;;;;;;;10.86;76.21;96348.34;5158690;27;20054;-62
2023/10/29 03:18:49;;;;;;;1999.90;999.90;;;;;;;10.87;76.95;96342.22;5158581;27;20046;-63
2023/10/29 03:21:18;;;;;;;1999.90;999.90;;;;;;;10.91;76.59;96345.53;5158489;27;20051;-62
2023/10/29 03:23:45;;;;;;;1999.90;999.90;;;;;;;10.94;76.65;96342.78;5158650;27;20046;-63
2023/10/29 03:26:15;;;;;;;1999.90;999.90;;;;;;;10.96;76.40;96352.25;5158488;27;20519;-62
2023/10/29 03:28:45;;;;;;;1999.90;999.90;;;;;;;10.95;76.38;96349.72;5158251;27;20042;-62
2023/10/29 03:31:16;;;;;;;1999.90;999.90;;;;;;;10.94;76.46;96355.88;5158352;27;20049;-62
2023/10/29 03:33:43;;;;;;;1999.90;999.90;;;;;;;10.94;76.35;96358.50;5158197;27;20046;-62
2023/10/29 03:36:12;;;;;;;1999.90;999.90;;;;;;;10.95;76.37;96361.03;5158357;27;20557;-63
2023/10/29 03:38:39;;;;;;;1999.90;999.90;;;;;;;10.99;75.88;96370.47;5158064;27;20076;-63
2023/10/29 03:41:06;;;;;;;1999.90;999.90;;;;;;;10.96;75.87;96365.34;5158287;27;20050;-63
2023/10/29 03:43:33;;;;;;;1999.90;999.90;;;;;;;10.98;75.47;96373.13;5158089;27;20046;-63
2023/10/29 03:46:02;;;;;;;1999.90;999.90;;;;;;;10.97;75.41;96374.91;5157977;27;20134;-62
2023/10/29 03:48:29;;;;;;;1999.90;999.90;;;;;;;10.95;75.51;96375.88;5158057;27;20502;-62
2023/10/29 03:50:56;;;;;;;1999.90;999.90;;;;;;;10.86;75.82;96377.13;5157984;27;20099;-62
2023/10/29 03:53:23;;;;;;;1999.90;999.90;;;;;;;10.81;76.44;96381.72;5157956;27;20047;-62
2023/10/29 03:55:51;;;;;;;1999.90;999.90;;;;;;;10.77;77.17;96386.19;5157855;27;20053;-62
2023/10/29 03:58:18;;;;;;;1999.90;999.90;;;;;;;10.76;77.04;96387.13;5157843;27;20074;-63
2023/10/29 04:00:52;;;;;;;1999.90;999.90;;;;;;;10.77;76.99;96388.00;5157787;27;20087;-63
2023/10/29 04:03:20;;;;;;;1999.90;999.90;;;;;;;10.80;77.03;96385.22;5157753;27;20440;-63
2023/10/29 04:05:47;;;;;;;1999.90;999.90;;;;;;;10.82;77.33;96391.25;5157765;27;20074;-62
2023/10/29 04:08:15;;;;;;;1999.90;999.90;;;;;;;10.82;77.41;96384.25;5157471;27;20495;-62
2023/10/29 04:10:42;;;;;;;1999.90;999.90;;;;;;;10.78;78.04;96380.09;5157630;27;20047;-62
2023/10/29 04:13:09;;;;;;;1999.90;999.90;;;;;;;10.76;78.88;96386.28;5157494;27;20511;-63
2023/10/29 04:15:37;;;;;;;1999.90;999.90;;;;;;;10.74;78.89;96396.78;5157394;27;20061;-62
2023/10/29 04:18:04;;;;;;;1999.90;999.90;;;;;;;10.74;78.36;96395.03;5157521;27;20484;-63
2023/10/29 04:20:32;;;;;;;1999.90;999.90;;;;;;;10.76;78.29;96394.13;5156522;27;20129;-63
2023/10/29 04:22:59;;;;;;;1999.90;999.90;;;;;;;10.79;78.42;96399.22;5157484;27;20043;-62
2023/10/29 04:25:27;;;;;;;1999.90;999.90;;;;;;;10.84;78.21;96390.25;5157317;27;20074;-62
2023/10/29 04:27:54;;;;;;;1999.90;999.90;;;;;;;10.85;77.94;96391.13;5157198;27;20121;-63
2023/10/29 04:30:21;;;;;;;1999.90;999.90;;;;;;;10.82;78.15;96401.72;5157157;27;20144;-62
2023/10/29 04:32:48;;;;;;;1999.90;999.90;;;;;;;10.83;78.08;96404.28;5157139;27;20046;-62
2023/10/29 04:35:15;;;;;;;1999.90;999.90;;;;;;;10.84;77.81;96410.38;5157131;27;20408;-63
2023/10/29 04:37:43;;;;;;;1999.90;999.90;;;;;;;10.82;77.97;96401.72;5156911;27;20126;-62
2023/10/29 04:40:11;;;;;;;1999.90;999.90;;;;;;;10.79;77.81;96415.78;5157088;27;20054;-62
2023/10/29 04:42:38;;;;;;;1999.90;999.90;;;;;;;10.70;78.54;96417.00;5156943;27;20050;-62
2023/10/29 04:45:06;;;;;;;1999.90;999.90;;;;;;;10.61;79.64;96410.41;5157057;27;20395;-62
2023/10/29 04:47:33;;;;;;;1999.90;999.90;;;;;;;10.63;79.85;96420.78;5156815;27;20054;-62
2023/10/29 04:50:00;;;;;;;1999.90;999.90;;;;;;;10.58;79.92;96426.22;5156854;27;20051;-62
2023/10/29 04:52:27;;;;;;;1999.90;999.90;;;;;;;10.62;80.06;96434.75;5156869;27;20057;-63
2023/10/29 04:54:56;;;;;;;1999.90;999.90;;;;;;;10.59;80.13;96437.50;5156864;27;20046;-62
2023/10/29 04:57:23;;;;;;;1999.90;999.90;;;;;;;10.63;79.82;96436.50;5156854;27;20050;-63
2023/10/29 04:59:52;;;;;;;1999.90;999.90;;;;;;;10.66;79.07;96436.38;5156688;27;20095;-62
2023/10/29 05:02:19;;;;;;;1999.90;999.90;;;;;;;10.67;79.33;96435.44;5156519;27;20038;-62
2023/10/29 05:04:46;;;;;;;1999.90;999.90;;;;;;;10.71;79.16;96446.63;5156590;27;20091;-62
2023/10/29 05:07:13;;;;;;;1999.90;999.90;;;;;;;10.77;78.79;96446.38;5156515;27;20456;-62
2023/10/29 05:09:40;;;;;;;1999.90;999.90;;;;;;;10.79;78.56;96436.72;5156382;27;20053;-62
2023/10/29 05:12:09;;;;;;;1999.90;999.90;;;;;;;10.85;78.51;96438.22;5156421;27;20042;-62
2023/10/29 05:14:37;;;;;;;1999.90;999.90;;;;;;;10.86;78.52;96446.00;5156503;27;20051;-62
2023/10/29 05:17:05;;;;;;;1999.90;999.90;;;;;;;10.91;78.52;96442.34;5156317;27;20083;-62
2023/10/29 05:19:32;;;;;;;1999.90;999.90;;;;;;;10.99;78.16;96448.16;5156194;27;20544;-62
2023/10/29 05:22:00;;;;;;;1999.90;999.90;;;;;;;11.01;78.30;96459.38;5156159;27;20047;-63
2023/10/29 05:24:27;;;;;;;1999.90;999.90;;;;;;;11.07;78.09;96456.53;5156044;27;20064;-62
2023/10/29 05:26:54;;;;;;;1999.90;999.90;;;;;;;11.34;77.89;96450.19;5156057;27;20492;-62
2023/10/29 05:29:22;;;;;;;1999.90;999.90;;;;;;;11.76;76.83;96451.00;5155971;27;20445;-62
2023/10/29 05:31:50;;;;;;;1999.90;999.90;;;;;;;12.02;75.77;96462.09;5155893;27;20054;-62
2023/10/29 05:34:17;;;;;;;1999.90;999.90;;;;;;;12.70;72.76;96478.28;5155933;27;20480;-62
2023/10/29 05:36:44;;;;;;;1999.90;999.90;;;;;;;13.85;69.17;96474.44;5155919;27;20046;-62
2023/10/29 05:39:14;;;;;;;1999.90;999.90;;;;;;;15.16;64.58;96483.16;5155570;27;20434;-62
2023/10/29 05:41:47;;;;;;;1999.90;999.90;;;;;;;16.36;59.71;96491.09;5155876;27;20484;-62
2023/10/29 05:44:16;;;;;;;1999.90;999.90;;;;;;;17.56;55.82;96496.69;5155650;27;20054;-63
2023/10/29 05:46:47;;;;;;;1999.90;999.90;;;;;;;18.75;53.41;96504.50;5155629;27;20169;-63
2023/10/29 05:49:19;;;;;;;1999.90;999.90;;;;;;;19.86;50.44;96505.22;5155510;27;20457;-63
2023/10/29 05:51:49;;;;;;;1999.90;999.90;;;;;;;20.89;47.67;96515.06;5155542;27;20057;-63
2023/10/29 05:54:19;;;;;;;1999.90;999.90;;;;;;;21.84;44.68;96521.53;5155498;27;20046;-63
2023/10/29 05:56:48;;;;;;;1999.90;999.90;;;;;;;22.69;42.60;96523.25;5155535;27;20536;-63
2023/10/29 05:59:18;;;;;;;1999.90;999.90;;;;;;;23.54;41.56;96524.69;5155475;27;20050;-64
2023/10/29 06:01:49;;;;;;;1999.90;999.90;;;;;;;24.44;39.89;96526.25;5155408;27;20385;-63
2023/10/29 06:04:20;;;;;;;1999.90;999.90;;;;;;;25.26;38.45;96538.13;5155321;27;20403;-64
2023/10/29 06:06:48;;;;;;;80.72;75.82;;;;;;;25.88;36.91;96538.38;5155231;27;20050;-63
2023/10/29 06:09:16;;;;;;;81.38;76.35;;;;;;;26.39;35.89;96532.38;5155115;27;20137;-63
2023/10/29 06:11:47;;;;;;;86.97;81.75;;;;;;;26.59;35.66;96541.03;5155267;27;20039;-64
2023/10/29 06:14:20;;;;;;;101.15;95.00;;;;;;;27.03;34.94;96545.41;5155158;27;20086;-64
2023/10/29 06:16:56;;;;;;;76.20;71.85;;;;;;;27.53;34.41;96550.06;5155160;27;20097;-63
2023/10/29 06:19:27;;;;;;;67.47;63.40;;;;;;;28.21;32.72;96541.88;5154965;27;20491;-64
2023/10/29 06:22:00;;;;;;;64.82;60.90;;;;;;;28.73;31.61;96543.31;5155089;27;20057;-62
2023/10/29 06:24:33;;;;;;;49.97;46.92;;;;;;;28.94;31.03;96546.44;5154831;27;20488;-63
2023/10/29 06:27:01;;;;;;;61.05;57.05;;;;;;;29.10;30.82;96548.22;5154873;27;20046;-63
2023/10/29 06:29:29;;;;;;;46.92;43.88;;;;;;;29.71;30.08;96555.59;5154861;27;20118;-62
2023/10/29 06:32:02;;;;;;;42.63;39.85;;;;;;;30.49;28.68;96546.53;5154960;27;20050;-64
2023/10/29 06:34:33;;;;;;;42.72;39.83;;;;;;;31.11;27.70;96554.44;5154794;27;20046;-64
2023/10/29 06:37:02;;;;;;;50.20;47.03;;;;;;;31.60;27.10;96559.38;5154868;27;20129;-63
2023/10/29 06:39:31;;;;;;;54.53;51.42;;;;;;;31.96;27.17;96563.06;5154595;27;20049;-62
2023/10/29 06:42:02;;;;;;;71.75;67.55;;;;;;;32.38;26.40;96563.16;5154824;27;20091;-62
2023/10/29 06:44:30;;;;;;;101.10;95.32;;;;;;;32.84;25.90;96569.13;5154187;27;20043;-62
2023/10/29 06:47:06;;;;;;;58.40;55.00;;;;;;;33.35;25.08;96573.31;5154742;27;20043;-63
2023/10/29 06:49:39;;;;;;;30.90;28.95;;;;;;;33.82;24.69;96577.22;5153594;27;20134;-62
2023/10/29 06:52:09;;;;;;;29.35;27.13;;;;;;;34.03;24.20;96576.19;5136699;27;20050;-62
2023/10/29 06:54:39;;;;;;;30.40;28.20;;;;;;;34.29;24.08;96575.38;5154694;27;20047;-63
2023/10/29 06:57:11;;;;;;;27.50;25.55;;;;;;;34.78;23.29;96580.59;5154582;27;20043;-63
2023/10/29 06:59:43;;;;;;;25.48;23.63;;;;;;;35.25;23.10;96570.63;5154435;27;20082;-62
2023/10/29 07:02:14;;;;;;;26.48;24.88;;;;;;;35.45;22.66;96570.53;5154737;27;20389;-61
2023/10/29 07:04:48;;;;;;;25.38;23.60;;;;;;;35.42;21.96;96562.78;5154653;27;20377;-63
2023/10/29 07:07:21;;;;;;;26.30;24.60;;;;;;;34.79;22.98;96567.81;5154405;27;20078;-62
2023/10/29 07:09:49;;;;;;;26.67;24.77;;;;;;;34.46;24.05;96566.00;5154466;27;20107;-62
2023/10/29 07:12:16;;;;;;;26.63;24.63;;;;;;;34.45;24.08;96570.59;5154597;27;20038;-62
2023/10/29 07:14:44;;;;;;;24.63;22.98;;;;;;;34.64;23.40;96565.34;5154527;27;20080;-62
2023/10/29 07:17:12;;;;;;;25.92;23.88;;;;;;;35.27;23.32;96571.22;5154509;27;20047;-61
2023/10/29 07:19:39;;;;;;;29.17;27.25;;;;;;;35.68;22.29;96566.41;5154366;27;20096;-61
2023/10/29 07:22:07;;;;;;;27.55;25.67;;;;;;;36.13;21.46;96570.94;5154360;27;20051;-62
2023/10/29 07:24:36;;;;;;;27.48;25.45;;;;;;;36.62;20.81;96570.31;5154320;27;20407;-61
2023/10/29 07:27:03;;;;;;;25.30;23.45;;;;;;;37.00;19.93;96567.63;5154385;27;20042;-62
2023/10/29 07:29:30;;;;;;;24.38;22.50;;;;;;;37.11;19.75;96575.03;5154327;27;20051;-62
2023/10/29 07:31:58;;;;;;;26.23;23.95;;;;;;;37.34;19.34;96569.97;5154381;27;20075;-62
2023/10/29 07:34:27;;;;;;;22.13;20.63;;;;;;;37.47;19.13;96572.50;5154254;27;20125;-61
2023/10/29 07:36:54;;;;;;;;;;;;;;;37.63;18.91;96576.50;5154764;27;20500;-62
2023/10/29 07:39:20;;;;;;;21.52;20.13;;;;;;;37.60;18.78;96567.94;5154117;27;19973;-61
2023/10/29 07:41:48;;;;;;;23.02;20.83;;;;;;;37.62;19.28;96576.75;5154188;27;20601;-61
2023/10/29 07:44:15;;;;;;;23.75;22.08;;;;;;;37.47;19.24;96582.59;5154262;27;20049;-62
2023/10/29 07:46:43;;;;;;;22.90;21.17;;;;;;;36.99;19.24;96580.41;5154156;27;20053;-63
2023/10/29 07:49:10;;;;;;;25.42;23.65;;;;;;;36.97;19.55;96585.28;5154186;27;20057;-63
2023/10/29 07:51:39;;;;;;;23.95;22.10;;;;;;;36.44;19.99;96581.19;5154192;27;20095;-62
2023/10/29 07:54:07;;;;;;;25.15;23.27;;;;;;;35.82;20.67;96583.53;5154139;27;20039;-62
2023/10/29 07:56:34;;;;;;;26.13;24.33;;;;;;;35.09;21.00;96583.59;5156555;27;20472;-62
2023/10/29 07:59:02;;;;;;;28.15;26.15;;;;;;;34.32;21.91;96581.44;5157815;27;20049;-62
2023/10/29 08:01:29;;;;;;;29.00;27.13;;;;;;;32.98;23.29;96586.25;5157893;27;20051;-61
2023/10/29 08:03:58;;;;;;;32.45;29.90;;;;;;;31.95;24.24;96583.84;5157812;27;20074;-61
2023/10/29 08:06:26;;;;;;;29.80;27.50;;;;;;;30.87;25.49;96585.25;5157776;27;20121;-61
2023/10/29 08:08:58;;;;;;;25.27;23.67;;;;;;;30.18;26.23;96587.09;5157583;27;20046;-62
2023/10/29 08:11:28;;;;;;;27.50;25.30;;;;;;;29.29;27.07;96583.81;5157703;27;20073;-63
2023/10/29 08:13:56;;;;;;;26.40;24.08;;;;;;;28.95;27.50;96580.44;5157599;27;20129;-64
2023/10/29 08:16:24;;;;;;;23.15;21.60;;;;;;;28.53;28.08;96577.81;5157615;27;20217;-62
2023/10/29 08:18:51;;;;;;;27.63;25.70;;;;;;;28.18;29.06;96580.72;5157451;27;20125;-64
2023/10/29 08:21:19;;;;;;;28.80;26.70;;;;;;;27.82;29.56;96579.19;5157474;27;20070;-64
2023/10/29 08:23:46;;;;;;;32.22;29.40;;;;;;;27.72;29.46;96582.03;5157337;27;20042;-63
2023/10/29 08:26:15;;;;;;;29.60;27.50;;;;;;;27.42;29.60;96581.59;5157241;27;20046;-63
2023/10/29 08:28:43;;;;;;;29.35;27.27;;;;;;;27.32;29.57;96586.28;5157147;27;20046;-62
2023/10/29 08:31:12;;;;;;;28.83;26.90;;;;;;;27.24;30.25;96582.56;5157152;27;20082;-62
2023/10/29 08:33:40;;;;;;;29.67;27.58;;;;;;;26.98;30.69;96575.44;5157293;27;20082;-63
2023/10/29 08:36:09;;;;;;;25.55;23.95;;;;;;;26.91;31.04;96577.03;5157241;27;20058;-63
2023/10/29 08:38:36;;;;;;;27.02;24.90;;;;;;;26.75;31.25;96588.53;5156872;27;20094;-63
2023/10/29 08:41:15;;;;;;;28.58;26.48;;;;;;;26.35;30.80;96585.47;5157056;27;20043;-62
2023/10/29 08:43:42;;;;;;;26.33;24.23;;;;;;;26.30;31.28;96583.25;5157066;27;20050;-63
2023/10/29 08:46:12;;;;;;;28.50;26.63;;;;;;;26.19;31.25;96581.63;5156969;27;20042;-63
2023/10/29 08:48:40;;;;;;;27.23;25.40;;;;;;;26.17;31.50;96580.09;5156844;27;20071;-64
2023/10/29 08:51:08;;;;;;;28.70;26.63;;;;;;;25.75;31.65;96598.53;5156891;27;20639;-63
2023/10/29 08:53:36;;;;;;;25.67;23.98;;;;;;;25.26;32.69;96590.78;5156892;27;20046;-64
2023/10/29 08:56:04;;;;;;;27.45;25.65;;;;;;;25.01;32.98;96602.03;5156782;27;20043;-65
2023/10/29 08:58:33;;;;;;;25.83;24.10;;;;;;;24.70;33.65;96600.44;5156837;27;20130;-64
2023/10/29 09:01:00;;;;;;;30.23;28.30;;;;;;;24.66;33.49;96603.56;5156733;27;20103;-63
2023/10/29 09:03:27;;;;;;;31.38;29.20;;;;;;;24.89;34.71;96603.22;5156554;27;20412;-64
2023/10/29 09:06:03;;;;;;;31.25;29.10;;;;;;;25.04;35.01;96615.13;5156360;27;20043;-62
2023/10/29 09:08:31;;;;;;;31.77;29.52;;;;;;;25.30;33.52;96610.91;5156524;27;20480;-64
2023/10/29 09:10:59;;;;;;;32.72;30.48;;;;;;;25.41;33.35;96605.34;5156481;27;20050;-62
2023/10/29 09:13:27;;;;;;;29.40;27.17;;;;;;;25.53;32.74;96602.47;5156337;27;20115;-64
2023/10/29 09:15:55;;;;;;;27.85;26.00;;;;;;;25.64;32.65;96604.94;5156396;27;20057;-62
2023/10/29 09:18:23;;;;;;;28.85;26.83;;;;;;;25.27;32.77;96612.06;5156287;27;20108;-62
2023/10/29 09:20:50;;;;;;;31.98;29.33;;;;;;;24.67;33.66;96614.13;5156179;27;20051;-65
2023/10/29 09:23:18;;;;;;;29.60;27.65;;;;;;;24.45;34.40;96610.81;5156210;27;20442;-64
2023/10/29 09:25:47;;;;;;;34.05;31.77;;;;;;;24.54;35.13;96611.75;5156055;27;20507;-64
2023/10/29 09:28:18;;;;;;;31.88;29.88;;;;;;;25.09;34.14;96607.50;5156135;27;20454;-64
2023/10/29 09:30:46;;;;;;;29.35;27.17;;;;;;;25.62;33.52;96601.59;5155977;27;20126;-64
2023/10/29 09:33:15;;;;;;;30.73;27.90;;;;;;;25.71;33.13;96599.81;5155975;27;20043;-64
2023/10/29 09:35:43;;;;;;;27.63;25.73;;;;;;;25.41;31.79;96601.84;5155955;27;20093;-62
2023/10/29 09:38:10;;;;;;;28.15;26.38;;;;;;;25.18;32.31;96591.53;5155671;27;20457;-62
2023/10/29 09:40:37;;;;;;;28.38;26.55;;;;;;;25.13;32.05;96591.16;5155895;27;20039;-63
2023/10/29 09:43:08;;;;;;;29.00;27.05;;;;;;;25.23;32.21;96600.78;5155873;27;20484;-62
2023/10/29 09:45:45;;;;;;;28.92;26.92;;;;;;;25.07;32.31;96592.59;5155874;27;20085;-63
2023/10/29 09:48:15;;;;;;;28.70;26.27;;;;;;;24.50;33.54;96582.78;5155790;27;20042;-63
2023/10/29 09:50:44;;;;;;;31.53;29.37;;;;;;;24.31;33.84;96592.53;5155509;27;20054;-63
2023/10/29 09:53:12;;;;;;;36.97;34.20;;;;;;;24.32;34.20;96588.88;5155544;27;20279;-62
2023/10/29 09:55:42;;;;;;;36.65;34.22;;;;;;;24.31;34.60;96584.50;5155530;27;20160;-63
2023/10/29 09:58:10;;;;;;;36.13;33.63;;;;;;;24.48;34.79;96574.91;5155456;27;20043;-62
2023/10/29 10:00:38;;;;;;;33.60;31.50;;;;;;;24.57;33.76;96583.91;5155468;27;20043;-63
2023/10/29 10:03:06;;;;;;;34.28;31.88;;;;;;;24.50;33.71;96572.09;5155432;27;20045;-63
2023/10/29 10:05:37;;;;;;;33.30;30.73;;;;;;;24.37;34.75;96578.59;5155260;27;20526;-63
2023/10/29 10:08:04;;;;;;;38.67;36.00;;;;;;;24.26;34.57;96578.78;5155467;27;20046;-62
2023/10/29 10:10:40;;;;;;;36.58;33.90;;;;;;;24.31;34.36;96588.03;5155081;27;20051;-62
2023/10/29 10:13:08;;;;;;;35.55;32.90;;;;;;;24.26;33.97;96590.28;5155294;27;20506;-64
2023/10/29 10:15:36;;;;;;;37.13;34.65;;;;;;;24.01;34.41;96586.34;5155295;27;20057;-64
2023/10/29 10:18:05;;;;;;;32.90;30.90;;;;;;;24.02;34.92;96585.38;5154451;27;20122;-62
2023/10/29 10:20:35;;;;;;;35.38;32.92;;;;;;;23.86;34.42;96578.78;5154999;27;20381;-62
2023/10/29 10:23:04;;;;;;;34.27;31.77;;;;;;;23.88;34.98;96582.16;5155170;27;20543;-62
2023/10/29 10:25:33;;;;;;;32.80;30.48;;;;;;;23.79;34.87;96573.16;5154963;27;20510;-63
2023/10/29 10:28:02;;;;;;;33.85;31.13;;;;;;;23.74;35.61;96570.06;5154946;27;20087;-64
2023/10/29 10:30:31;;;;;;;32.83;30.50;;;;;;;23.71;35.11;96578.34;5154855;27;20137;-63
2023/10/29 10:33:10;;;;;;;31.35;29.38;;;;;;;23.79;34.90;96575.00;5154767;27;20046;-64
2023/10/29 10:35:44;;;;;;;33.90;31.55;;;;;;;23.72;35.12;96574.72;5154858;27;20043;-63
2023/10/29 10:38:11;;;;;;;31.42;29.25;;;;;;;23.57;34.80;96579.63;5154796;27;20070;-63
2023/10/29 10:40:39;;;;;;;30.55;28.35;;;;;;;23.53;34.92;96578.19;5154995;27;20042;-64
2023/10/29 10:43:07;;;;;;;32.15;29.83;;;;;;;23.43;35.23;96586.22;5154953;27;20074;-62
2023/10/29 10:45:38;;;;;;;30.67;28.30;;;;;;;23.33;35.25;96579.00;5154826;27;20053;-63
2023/10/29 10:48:08;;;;;;;34.75;32.17;;;;;;;23.23;36.06;96573.66;5154820;27;20043;-62
2023/10/29 10:50:35;;;;;;;31.80;29.35;;;;;;;23.25;36.62;96575.31;5154726;27;20053;-63
2023/10/29 10:53:05;;;;;;;32.53;30.35;;;;;;;23.03;36.04;96580.75;5154728;27;20054;-64
2023/10/29 10:55:34;;;;;;;35.08;31.92;;;;;;;23.10;36.50;96576.56;5154733;27;20049;-64
2023/10/29 10:58:05;;;;;;;34.25;31.90;;;;;;;23.21;35.86;96572.09;5154571;27;20068;-64
2023/10/29 11:00:33;;;;;;;32.63;30.48;;;;;;;23.30;35.28;96571.25;5154724;27;20068;-64
2023/10/29 11:03:01;;;;;;;33.50;31.02;;;;;;;23.46;35.57;96573.44;5154488;27;20054;-63
2023/10/29 11:05:32;;;;;;;33.78;31.38;;;;;;;23.66;36.15;96568.09;5154591;27;20043;-64
2023/10/29 11:08:00;;;;;;;36.45;34.00;;;;;;;23.85;36.47;96569.09;5154513;27;20118;-63
2023/10/29 11:10:31;;;;;;;34.78;31.98;;;;;;;24.07;35.85;96559.06;5154439;27;20064;-62
2023/10/29 11:13:22;;;;;;;35.33;33.05;;;;;;;24.19;34.19;96555.28;5154416;27;20129;-63